sensor_id;sensor_type;location;lat;lon;timestamp;pressure;altitude;pressure_sealevel;temperature;humidity
59063;BME280;44851;45.648;9.004;2023-02-28T00:00:34;99505.69;;;4.21;63.67
59063;BME280;44851;45.648;9.004;2023-02-28T00:03:00;99509.66;;;4.27;63.79
59063;BME280;44851;45.648;9.004;2023-02-28T00:05:27;99509.47;;;4.30;63.06
59063;BME280;44851;45.648;9.004;2023-02-28T00:07:53;99503.25;;;4.18;63.36
59063;BME280;44851;45.648;9.004;2023-02-28T00:10:21;99506.66;;;4.19;64.63
59063;BME280;44851;45.648;9.004;2023-02-28T00:12:52;99508.31;;;4.20;64.12
59063;BME280;44851;45.648;9.004;2023-02-28T00:15:18;99512.41;;;4.24;64.71
59063;BME280;44851;45.648;9.004;2023-02-28T00:17:44;99511.09;;;4.17;64.59
59063;BME280;44851;45.648;9.004;2023-02-28T00:20:11;99511.00;;;4.18;64.93
59063;BME280;44851;45.648;9.004;2023-02-28T00:22:42;99520.28;;;4.21;64.95
59063;BME280;44851;45.648;9.004;2023-02-28T00:25:09;99513.47;;;4.20;64.10
59063;BME280;44851;45.648;9.004;2023-02-28T00:27:36;99519.41;;;4.22;64.81
59063;BME280;44851;45.648;9.004;2023-02-28T00:30:03;99520.66;;;4.15;65.26
59063;BME280;44851;45.648;9.004;2023-02-28T00:32:29;99511.00;;;4.18;65.29
59063;BME280;44851;45.648;9.004;2023-02-28T00:34:55;99515.81;;;4.24;65.33
59063;BME280;44851;45.648;9.004;2023-02-28T00:37:20;99510.31;;;4.15;65.51
59063;BME280;44851;45.648;9.004;2023-02-28T00:39:46;99517.34;;;4.13;65.43
59063;BME280;44851;45.648;9.004;2023-02-28T00:42:11;99526.56;;;4.17;65.89
59063;BME280;44851;45.648;9.004;2023-02-28T00:44:37;99522.16;;;4.19;65.85
59063;BME280;44851;45.648;9.004;2023-02-28T00:47:02;99516.66;;;4.09;67.03
59063;BME280;44851;45.648;9.004;2023-02-28T00:49:28;99524.34;;;4.11;65.69
59063;BME280;44851;45.648;9.004;2023-02-28T00:51:54;99511.44;;;4.11;66.79
59063;BME280;44851;45.648;9.004;2023-02-28T00:54:21;99519.00;;;4.14;66.96
59063;BME280;44851;45.648;9.004;2023-02-28T00:56:47;99517.16;;;4.16;67.05
59063;BME280;44851;45.648;9.004;2023-02-28T00:59:13;99527.31;;;4.19;66.63
59063;BME280;44851;45.648;9.004;2023-02-28T01:01:39;99530.38;;;4.10;67.05
59063;BME280;44851;45.648;9.004;2023-02-28T01:04:05;99534.13;;;4.04;66.81
59063;BME280;44851;45.648;9.004;2023-02-28T01:06:30;99529.81;;;4.04;66.62
59063;BME280;44851;45.648;9.004;2023-02-28T01:08:57;99536.13;;;3.99;66.47
59063;BME280;44851;45.648;9.004;2023-02-28T01:11:22;99533.31;;;4.03;67.40
59063;BME280;44851;45.648;9.004;2023-02-28T01:13:48;99534.38;;;3.99;67.69
59063;BME280;44851;45.648;9.004;2023-02-28T01:16:13;99531.50;;;4.05;67.23
59063;BME280;44851;45.648;9.004;2023-02-28T01:18:39;99528.34;;;4.00;67.68
59063;BME280;44851;45.648;9.004;2023-02-28T01:21:16;99528.66;;;3.94;66.20
59063;BME280;44851;45.648;9.004;2023-02-28T01:23:42;99537.16;;;3.96;68.19
59063;BME280;44851;45.648;9.004;2023-02-28T01:26:13;99537.97;;;4.13;68.40
59063;BME280;44851;45.648;9.004;2023-02-28T01:28:39;99535.75;;;4.06;67.81
59063;BME280;44851;45.648;9.004;2023-02-28T01:31:04;99540.66;;;3.95;67.84
59063;BME280;44851;45.648;9.004;2023-02-28T01:33:30;99542.13;;;3.99;68.46
59063;BME280;44851;45.648;9.004;2023-02-28T01:36:00;99536.34;;;3.80;68.70
59063;BME280;44851;45.648;9.004;2023-02-28T01:38:26;99538.97;;;3.94;68.70
59063;BME280;44851;45.648;9.004;2023-02-28T01:40:52;99531.66;;;4.02;68.10
59063;BME280;44851;45.648;9.004;2023-02-28T01:45:50;99533.31;;;4.03;68.76
59063;BME280;44851;45.648;9.004;2023-02-28T01:48:16;99534.91;;;3.90;67.13
59063;BME280;44851;45.648;9.004;2023-02-28T01:50:43;99539.53;;;3.99;67.97
59063;BME280;44851;45.648;9.004;2023-02-28T01:53:29;99526.84;;;3.96;67.13
59063;BME280;44851;45.648;9.004;2023-02-28T01:55:57;99530.56;;;4.06;67.98
59063;BME280;44851;45.648;9.004;2023-02-28T01:58:23;99530.34;;;3.95;67.98
59063;BME280;44851;45.648;9.004;2023-02-28T02:00:49;99525.56;;;4.03;68.94
59063;BME280;44851;45.648;9.004;2023-02-28T02:03:16;99528.00;;;4.06;69.11
59063;BME280;44851;45.648;9.004;2023-02-28T02:05:47;99527.06;;;4.07;68.90
59063;BME280;44851;45.648;9.004;2023-02-28T02:08:28;99524.84;;;4.01;68.08
59063;BME280;44851;45.648;9.004;2023-02-28T02:10:56;99523.91;;;4.02;68.95
59063;BME280;44851;45.648;9.004;2023-02-28T02:18:44;99520.69;;;3.83;67.64
59063;BME280;44851;45.648;9.004;2023-02-28T02:29:47;99522.53;;;3.65;68.02
59063;BME280;44851;45.648;9.004;2023-02-28T02:37:43;99520.53;;;3.54;67.33
59063;BME280;44851;45.648;9.004;2023-02-28T02:40:22;99521.69;;;3.65;68.18
59063;BME280;44851;45.648;9.004;2023-02-28T02:45:25;99528.34;;;3.85;68.80
59063;BME280;44851;45.648;9.004;2023-02-28T02:47:55;99522.09;;;3.73;68.10
59063;BME280;44851;45.648;9.004;2023-02-28T02:50:31;99530.75;;;3.72;67.48
59063;BME280;44851;45.648;9.004;2023-02-28T02:53:00;99532.75;;;3.34;68.04
59063;BME280;44851;45.648;9.004;2023-02-28T02:55:27;99528.50;;;3.50;68.47
59063;BME280;44851;45.648;9.004;2023-02-28T02:58:02;99544.56;;;3.71;68.61
59063;BME280;44851;45.648;9.004;2023-02-28T03:00:35;99536.56;;;3.75;68.84
59063;BME280;44851;45.648;9.004;2023-02-28T03:03:03;99533.84;;;3.63;68.35
59063;BME280;44851;45.648;9.004;2023-02-28T03:05:35;99526.34;;;3.58;69.02
59063;BME280;44851;45.648;9.004;2023-02-28T03:08:04;99532.50;;;3.71;70.13
59063;BME280;44851;45.648;9.004;2023-02-28T03:10:42;99530.75;;;3.72;68.44
59063;BME280;44851;45.648;9.004;2023-02-28T03:18:58;99535.16;;;3.54;68.41
59063;BME280;44851;45.648;9.004;2023-02-28T03:27:09;99536.47;;;3.77;68.83
59063;BME280;44851;45.648;9.004;2023-02-28T03:29:47;99536.66;;;3.74;69.03
59063;BME280;44851;45.648;9.004;2023-02-28T03:32:26;99538.13;;;3.78;68.21
59063;BME280;44851;45.648;9.004;2023-02-28T03:35:02;99541.63;;;3.77;69.26
59063;BME280;44851;45.648;9.004;2023-02-28T03:37:33;99537.50;;;3.74;68.50
59063;BME280;44851;45.648;9.004;2023-02-28T03:40:11;99543.47;;;3.75;69.29
59063;BME280;44851;45.648;9.004;2023-02-28T03:42:41;99545.28;;;3.73;69.54
59063;BME280;44851;45.648;9.004;2023-02-28T03:45:18;99545.97;;;3.61;68.37
59063;BME280;44851;45.648;9.004;2023-02-28T03:50:37;99544.66;;;3.85;69.96
59063;BME280;44851;45.648;9.004;2023-02-28T03:54:06;99543.16;;;3.81;68.71
59063;BME280;44851;45.648;9.004;2023-02-28T03:56:17;99549.03;;;3.83;68.83
59063;BME280;44851;45.648;9.004;2023-02-28T04:03:52;99549.81;;;3.85;67.44
59063;BME280;44851;45.648;9.004;2023-02-28T04:06:20;99550.63;;;4.01;67.06
59063;BME280;44851;45.648;9.004;2023-02-28T04:08:46;99545.63;;;3.67;66.23
59063;BME280;44851;45.648;9.004;2023-02-28T04:11:22;99552.78;;;3.62;66.25
59063;BME280;44851;45.648;9.004;2023-02-28T04:13:49;99556.44;;;3.58;66.08
59063;BME280;44851;45.648;9.004;2023-02-28T04:16:15;99555.09;;;3.50;64.64
59063;BME280;44851;45.648;9.004;2023-02-28T04:18:41;99550.28;;;3.60;64.34
59063;BME280;44851;45.648;9.004;2023-02-28T04:21:11;99554.94;;;3.53;63.96
59063;BME280;44851;45.648;9.004;2023-02-28T04:23:36;99550.09;;;3.30;61.84
59063;BME280;44851;45.648;9.004;2023-02-28T04:26:02;99549.53;;;3.42;61.94
59063;BME280;44851;45.648;9.004;2023-02-28T04:28:28;99558.38;;;3.37;62.22
59063;BME280;44851;45.648;9.004;2023-02-28T04:31:03;99557.84;;;3.47;62.01
59063;BME280;44851;45.648;9.004;2023-02-28T04:33:30;99555.09;;;3.50;62.41
59063;BME280;44851;45.648;9.004;2023-02-28T04:36:07;99554.47;;;3.63;62.00
59063;BME280;44851;45.648;9.004;2023-02-28T04:38:38;99551.38;;;3.72;63.18
59063;BME280;44851;45.648;9.004;2023-02-28T04:41:04;99555.59;;;3.41;61.95
59063;BME280;44851;45.648;9.004;2023-02-28T04:43:30;99556.88;;;3.33;62.52
59063;BME280;44851;45.648;9.004;2023-02-28T04:45:57;99558.19;;;3.40;62.41
59063;BME280;44851;45.648;9.004;2023-02-28T04:48:30;99556.09;;;3.48;62.31
59063;BME280;44851;45.648;9.004;2023-02-28T04:51:01;99560.00;;;3.55;62.10
59063;BME280;44851;45.648;9.004;2023-02-28T04:53:27;99566.72;;;3.42;62.03
59063;BME280;44851;45.648;9.004;2023-02-28T04:55:53;99564.19;;;3.40;61.50
59063;BME280;44851;45.648;9.004;2023-02-28T04:58:18;99563.34;;;3.40;61.83
59063;BME280;44851;45.648;9.004;2023-02-28T05:00:44;99567.59;;;3.41;62.43
59063;BME280;44851;45.648;9.004;2023-02-28T05:03:09;99569.41;;;3.39;62.87
59063;BME280;44851;45.648;9.004;2023-02-28T05:05:35;99567.47;;;3.44;61.97
59063;BME280;44851;45.648;9.004;2023-02-28T05:08:00;99569.66;;;3.34;61.54
59063;BME280;44851;45.648;9.004;2023-02-28T05:10:26;99573.38;;;3.46;60.81
59063;BME280;44851;45.648;9.004;2023-02-28T05:12:51;99574.56;;;3.39;61.07
59063;BME280;44851;45.648;9.004;2023-02-28T05:15:18;99578.47;;;3.47;62.13
59063;BME280;44851;45.648;9.004;2023-02-28T05:17:43;99575.41;;;3.39;61.48
59063;BME280;44851;45.648;9.004;2023-02-28T05:20:10;99577.25;;;3.37;61.22
59063;BME280;44851;45.648;9.004;2023-02-28T05:22:42;99578.53;;;3.46;61.43
59063;BME280;44851;45.648;9.004;2023-02-28T05:25:11;99577.97;;;3.39;61.34
59063;BME280;44851;45.648;9.004;2023-02-28T05:27:37;99573.72;;;3.56;62.05
59063;BME280;44851;45.648;9.004;2023-02-28T05:30:03;99571.06;;;3.41;61.62
59063;BME280;44851;45.648;9.004;2023-02-28T05:32:29;99578.81;;;3.40;61.27
59063;BME280;44851;45.648;9.004;2023-02-28T05:34:54;99577.56;;;3.31;60.95
59063;BME280;44851;45.648;9.004;2023-02-28T05:37:20;99573.78;;;3.21;60.87
59063;BME280;44851;45.648;9.004;2023-02-28T05:39:46;99573.00;;;3.36;61.72
59063;BME280;44851;45.648;9.004;2023-02-28T05:42:11;99580.03;;;3.50;62.26
59063;BME280;44851;45.648;9.004;2023-02-28T05:44:36;99573.13;;;3.50;61.70
59063;BME280;44851;45.648;9.004;2023-02-28T05:47:02;99585.69;;;3.57;61.73
59063;BME280;44851;45.648;9.004;2023-02-28T05:49:28;99582.03;;;3.61;61.74
59063;BME280;44851;45.648;9.004;2023-02-28T05:51:53;99582.97;;;3.75;61.63
59063;BME280;44851;45.648;9.004;2023-02-28T05:54:19;99587.97;;;3.63;62.41
59063;BME280;44851;45.648;9.004;2023-02-28T05:56:44;99583.09;;;3.57;63.24
59063;BME280;44851;45.648;9.004;2023-02-28T05:59:11;99585.53;;;3.60;63.49
59063;BME280;44851;45.648;9.004;2023-02-28T06:01:41;99587.38;;;3.58;62.61
59063;BME280;44851;45.648;9.004;2023-02-28T06:04:09;99592.22;;;3.46;62.31
59063;BME280;44851;45.648;9.004;2023-02-28T06:06:36;99588.19;;;3.41;61.91
59063;BME280;44851;45.648;9.004;2023-02-28T06:09:05;99589.66;;;3.29;62.34
59063;BME280;44851;45.648;9.004;2023-02-28T06:11:31;99577.44;;;3.50;61.60
59063;BME280;44851;45.648;9.004;2023-02-28T06:13:57;99581.47;;;3.38;61.83
59063;BME280;44851;45.648;9.004;2023-02-28T06:16:25;99581.19;;;3.44;62.12
59063;BME280;44851;45.648;9.004;2023-02-28T06:18:51;99586.50;;;3.57;62.76
59063;BME280;44851;45.648;9.004;2023-02-28T06:21:18;99589.03;;;3.59;63.00
59063;BME280;44851;45.648;9.004;2023-02-28T06:23:44;99590.84;;;3.57;64.06
59063;BME280;44851;45.648;9.004;2023-02-28T06:26:10;99599.50;;;3.56;62.93
59063;BME280;44851;45.648;9.004;2023-02-28T06:28:35;99599.94;;;3.64;63.16
59063;BME280;44851;45.648;9.004;2023-02-28T06:31:09;99592.81;;;3.51;62.51
59063;BME280;44851;45.648;9.004;2023-02-28T06:33:35;99603.81;;;3.55;63.13
59063;BME280;44851;45.648;9.004;2023-02-28T06:36:01;99606.81;;;3.47;63.53
59063;BME280;44851;45.648;9.004;2023-02-28T06:38:27;99601.47;;;3.50;63.26
59063;BME280;44851;45.648;9.004;2023-02-28T06:40:53;99603.81;;;3.55;63.28
59063;BME280;44851;45.648;9.004;2023-02-28T06:43:19;99608.81;;;3.41;63.60
59063;BME280;44851;45.648;9.004;2023-02-28T06:45:44;99605.81;;;3.50;62.74
59063;BME280;44851;45.648;9.004;2023-02-28T06:48:10;99603.44;;;3.63;62.85
59063;BME280;44851;45.648;9.004;2023-02-28T06:50:36;99608.00;;;3.58;62.69
59063;BME280;44851;45.648;9.004;2023-02-28T06:53:02;99614.63;;;3.62;62.37
59063;BME280;44851;45.648;9.004;2023-02-28T06:55:27;99615.63;;;3.59;62.75
59063;BME280;44851;45.648;9.004;2023-02-28T06:57:53;99622.09;;;3.50;63.30
59063;BME280;44851;45.648;9.004;2023-02-28T07:00:20;99620.38;;;3.67;62.46
59063;BME280;44851;45.648;9.004;2023-02-28T07:02:46;99606.91;;;3.62;63.25
59063;BME280;44851;45.648;9.004;2023-02-28T07:05:12;99610.56;;;3.58;63.39
59063;BME280;44851;45.648;9.004;2023-02-28T07:07:38;99617.47;;;3.73;62.82
59063;BME280;44851;45.648;9.004;2023-02-28T07:10:06;99612.81;;;3.64;62.93
59063;BME280;44851;45.648;9.004;2023-02-28T07:12:32;99614.31;;;3.68;62.59
59063;BME280;44851;45.648;9.004;2023-02-28T07:14:57;99610.41;;;3.61;63.32
59063;BME280;44851;45.648;9.004;2023-02-28T07:17:23;99621.31;;;3.66;62.63
59063;BME280;44851;45.648;9.004;2023-02-28T07:19:48;99612.97;;;3.61;62.10
59063;BME280;44851;45.648;9.004;2023-02-28T07:22:14;99620.56;;;3.64;62.03
59063;BME280;44851;45.648;9.004;2023-02-28T07:24:39;99625.47;;;3.68;62.98
59063;BME280;44851;45.648;9.004;2023-02-28T07:27:04;99627.28;;;3.66;63.05
59063;BME280;44851;45.648;9.004;2023-02-28T07:29:30;99628.38;;;3.78;62.30
59063;BME280;44851;45.648;9.004;2023-02-28T07:31:55;99620.00;;;3.74;62.44
59063;BME280;44851;45.648;9.004;2023-02-28T07:34:21;99629.31;;;3.77;62.50
59063;BME280;44851;45.648;9.004;2023-02-28T07:36:47;99622.34;;;3.79;61.51
59063;BME280;44851;45.648;9.004;2023-02-28T07:39:13;99625.16;;;3.74;62.10
59063;BME280;44851;45.648;9.004;2023-02-28T07:41:40;99629.81;;;3.84;61.67
59063;BME280;44851;45.648;9.004;2023-02-28T07:44:10;99626.38;;;3.83;61.12
59063;BME280;44851;45.648;9.004;2023-02-28T07:46:36;99632.06;;;3.90;61.27
59063;BME280;44851;45.648;9.004;2023-02-28T07:49:01;99640.66;;;3.90;60.75
59063;BME280;44851;45.648;9.004;2023-02-28T07:51:29;99633.25;;;4.00;61.29
59063;BME280;44851;45.648;9.004;2023-02-28T07:53:56;99637.28;;;3.88;62.09
59063;BME280;44851;45.648;9.004;2023-02-28T07:56:21;99640.06;;;3.85;62.36
59063;BME280;44851;45.648;9.004;2023-02-28T07:58:47;99635.22;;;3.79;63.10
59063;BME280;44851;45.648;9.004;2023-02-28T08:01:13;99645.22;;;3.85;62.86
59063;BME280;44851;45.648;9.004;2023-02-28T08:03:39;99640.78;;;3.87;63.29
59063;BME280;44851;45.648;9.004;2023-02-28T08:06:06;99646.41;;;3.95;62.96
59063;BME280;44851;45.648;9.004;2023-02-28T08:08:33;99642.03;;;3.80;62.42
59063;BME280;44851;45.648;9.004;2023-02-28T08:11:00;99653.47;;;4.07;61.96
59063;BME280;44851;45.648;9.004;2023-02-28T08:13:27;99643.81;;;3.95;62.03
59063;BME280;44851;45.648;9.004;2023-02-28T08:15:53;99648.78;;;3.98;63.70
59063;BME280;44851;45.648;9.004;2023-02-28T08:18:20;99643.66;;;4.14;63.44
59063;BME280;44851;45.648;9.004;2023-02-28T08:20:45;99647.63;;;4.20;63.11
59063;BME280;44851;45.648;9.004;2023-02-28T08:23:11;99643.97;;;4.24;63.20
59063;BME280;44851;45.648;9.004;2023-02-28T08:25:36;99645.66;;;4.25;61.46
59063;BME280;44851;45.648;9.004;2023-02-28T08:28:02;99642.56;;;4.34;63.45
59063;BME280;44851;45.648;9.004;2023-02-28T08:30:27;99653.63;;;4.36;61.81
59063;BME280;44851;45.648;9.004;2023-02-28T08:32:53;99650.06;;;4.54;62.44
59063;BME280;44851;45.648;9.004;2023-02-28T08:35:19;99652.88;;;4.66;61.47
59063;BME280;44851;45.648;9.004;2023-02-28T08:37:47;99653.44;;;4.71;62.88
59063;BME280;44851;45.648;9.004;2023-02-28T08:40:13;99654.06;;;4.74;60.62
59063;BME280;44851;45.648;9.004;2023-02-28T08:42:46;99659.75;;;4.81;61.43
59063;BME280;44851;45.648;9.004;2023-02-28T08:45:13;99659.06;;;4.93;60.07
59063;BME280;44851;45.648;9.004;2023-02-28T08:47:38;99655.53;;;4.94;61.03
59063;BME280;44851;45.648;9.004;2023-02-28T08:50:04;99657.03;;;4.98;60.84
59063;BME280;44851;45.648;9.004;2023-02-28T08:52:30;99656.31;;;4.96;59.23
59063;BME280;44851;45.648;9.004;2023-02-28T08:54:55;99657.03;;;4.98;60.32
59063;BME280;44851;45.648;9.004;2023-02-28T08:57:21;99657.03;;;4.98;59.55
59063;BME280;44851;45.648;9.004;2023-02-28T08:59:46;99657.25;;;5.09;59.36
59063;BME280;44851;45.648;9.004;2023-02-28T09:02:15;99653.22;;;5.20;59.69
59063;BME280;44851;45.648;9.004;2023-02-28T09:04:41;99662.09;;;5.30;60.09
59063;BME280;44851;45.648;9.004;2023-02-28T09:07:07;99666.06;;;5.35;59.51
59063;BME280;44851;45.648;9.004;2023-02-28T09:09:32;99661.56;;;5.39;59.56
59063;BME280;44851;45.648;9.004;2023-02-28T09:11:58;99666.38;;;5.45;59.83
59063;BME280;44851;45.648;9.004;2023-02-28T09:14:24;99657.69;;;5.46;60.13
59063;BME280;44851;45.648;9.004;2023-02-28T09:16:49;99663.78;;;5.59;60.01
59063;BME280;44851;45.648;9.004;2023-02-28T09:19:15;99662.78;;;5.62;58.57
59063;BME280;44851;45.648;9.004;2023-02-28T09:21:40;99663.31;;;5.53;56.66
59063;BME280;44851;45.648;9.004;2023-02-28T09:24:06;99666.31;;;5.89;57.74
59063;BME280;44851;45.648;9.004;2023-02-28T09:26:32;99662.91;;;6.03;58.59
59063;BME280;44851;45.648;9.004;2023-02-28T09:28:59;99668.78;;;6.20;58.96
59063;BME280;44851;45.648;9.004;2023-02-28T09:31:27;99667.75;;;6.22;56.41
59063;BME280;44851;45.648;9.004;2023-02-28T09:33:55;99668.47;;;6.38;57.93
59063;BME280;44851;45.648;9.004;2023-02-28T09:36:23;99669.38;;;6.52;58.26
59063;BME280;44851;45.648;9.004;2023-02-28T09:38:49;99672.88;;;6.51;56.17
59063;BME280;44851;45.648;9.004;2023-02-28T09:41:21;99683.16;;;6.38;53.89
59063;BME280;44851;45.648;9.004;2023-02-28T09:43:51;99674.53;;;6.25;54.91
59063;BME280;44851;45.648;9.004;2023-02-28T09:48:53;99677.59;;;6.44;54.67
59063;BME280;44851;45.648;9.004;2023-02-28T09:54:15;99677.03;;;6.53;55.32
59063;BME280;44851;45.648;9.004;2023-02-28T09:56:53;99682.03;;;6.56;55.83
59063;BME280;44851;45.648;9.004;2023-02-28T10:04:58;99681.66;;;6.48;54.54
59063;BME280;44851;45.648;9.004;2023-02-28T10:09:58;99687.59;;;6.50;54.88
59063;BME280;44851;45.648;9.004;2023-02-28T10:12:27;99689.25;;;6.51;55.23
59063;BME280;44851;45.648;9.004;2023-02-28T10:14:55;99683.56;;;6.59;56.42
59063;BME280;44851;45.648;9.004;2023-02-28T10:17:27;99683.28;;;6.63;54.85
59063;BME280;44851;45.648;9.004;2023-02-28T10:22:37;99673.13;;;6.60;51.61
59063;BME280;44851;45.648;9.004;2023-02-28T10:25:18;99677.00;;;6.67;51.07
59063;BME280;44851;45.648;9.004;2023-02-28T10:27:44;99668.94;;;6.72;53.62
59063;BME280;44851;45.648;9.004;2023-02-28T10:30:11;99666.34;;;6.72;52.17
59063;BME280;44851;45.648;9.004;2023-02-28T10:32:38;99658.66;;;6.71;53.31
59063;BME280;44851;45.648;9.004;2023-02-28T10:37:44;99658.19;;;6.91;51.42
59063;BME280;44851;45.648;9.004;2023-02-28T10:45:39;99666.66;;;6.80;52.02
59063;BME280;44851;45.648;9.004;2023-02-28T10:50:45;99674.88;;;6.87;54.22
59063;BME280;44851;45.648;9.004;2023-02-28T10:58:29;99672.81;;;6.92;52.92
59063;BME280;44851;45.648;9.004;2023-02-28T11:00:55;99668.69;;;7.02;52.87
59063;BME280;44851;45.648;9.004;2023-02-28T11:03:34;99665.97;;;6.91;50.00
59063;BME280;44851;45.648;9.004;2023-02-28T11:06:08;99658.84;;;7.07;51.64
59063;BME280;44851;45.648;9.004;2023-02-28T11:08:50;99658.44;;;7.13;51.46
59063;BME280;44851;45.648;9.004;2023-02-28T11:11:17;99654.19;;;7.12;51.45
59063;BME280;44851;45.648;9.004;2023-02-28T11:13:45;99648.41;;;7.21;50.90
59063;BME280;44851;45.648;9.004;2023-02-28T11:16:13;99646.25;;;7.41;52.15
59063;BME280;44851;45.648;9.004;2023-02-28T11:18:55;99645.75;;;7.36;50.55
59063;BME280;44851;45.648;9.004;2023-02-28T11:21:29;99637.53;;;7.42;50.43
59063;BME280;44851;45.648;9.004;2023-02-28T11:24:23;99641.59;;;7.46;50.29
59063;BME280;44851;45.648;9.004;2023-02-28T11:26:47;99638.28;;;7.57;49.82
59063;BME280;44851;45.648;9.004;2023-02-28T11:29:26;99637.41;;;7.56;50.66
59063;BME280;44851;45.648;9.004;2023-02-28T11:32:16;99618.94;;;7.61;50.18
59063;BME280;44851;45.648;9.004;2023-02-28T11:34:43;99619.84;;;7.72;50.00
59063;BME280;44851;45.648;9.004;2023-02-28T11:37:14;99613.34;;;7.80;50.88
59063;BME280;44851;45.648;9.004;2023-02-28T11:39:41;99614.78;;;7.96;50.41
59063;BME280;44851;45.648;9.004;2023-02-28T11:55:49;99592.31;;;8.56;47.35
59063;BME280;44851;45.648;9.004;2023-02-28T12:04:42;99581.50;;;8.73;46.82
59063;BME280;44851;45.648;9.004;2023-02-28T12:12:25;99562.03;;;9.37;45.92
59063;BME280;44851;45.648;9.004;2023-02-28T12:21:18;99552.06;;;9.30;42.57
59063;BME280;44851;45.648;9.004;2023-02-28T12:26:50;99542.97;;;9.14;45.57
59063;BME280;44851;45.648;9.004;2023-02-28T12:29:24;99539.53;;;9.24;44.16
59063;BME280;44851;45.648;9.004;2023-02-28T12:32:09;99544.88;;;9.23;44.19
59063;BME280;44851;45.648;9.004;2023-02-28T12:34:42;99534.84;;;9.41;42.82
59063;BME280;44851;45.648;9.004;2023-02-28T12:40:05;99522.31;;;10.32;44.57
59063;BME280;44851;45.648;9.004;2023-02-28T12:42:51;99523.03;;;10.34;43.44
59063;BME280;44851;45.648;9.004;2023-02-28T12:45:39;99515.28;;;10.23;44.27
59063;BME280;44851;45.648;9.004;2023-02-28T12:48:08;99526.69;;;10.00;43.18
59063;BME280;44851;45.648;9.004;2023-02-28T12:50:36;99521.28;;;9.92;43.57
59063;BME280;44851;45.648;9.004;2023-02-28T12:53:07;99511.31;;;10.08;44.98
59063;BME280;44851;45.648;9.004;2023-02-28T12:59:11;99511.09;;;10.53;47.32
59063;BME280;44851;45.648;9.004;2023-02-28T13:04:41;99508.97;;;11.00;42.19
59063;BME280;44851;45.648;9.004;2023-02-28T13:09:52;99499.56;;;10.88;42.03
59063;BME280;44851;45.648;9.004;2023-02-28T13:12:18;99494.19;;;10.68;41.86
59063;BME280;44851;45.648;9.004;2023-02-28T13:14:46;99496.59;;;11.02;43.13
59063;BME280;44851;45.648;9.004;2023-02-28T13:17:14;99493.75;;;11.05;40.43
59063;BME280;44851;45.648;9.004;2023-02-28T13:19:57;99490.06;;;11.17;41.83
59063;BME280;44851;45.648;9.004;2023-02-28T13:22:37;99487.31;;;11.09;40.76
59063;BME280;44851;45.648;9.004;2023-02-28T13:27:58;99471.34;;;11.43;41.04
59063;BME280;44851;45.648;9.004;2023-02-28T13:44:15;99468.97;;;11.20;39.99
59063;BME280;44851;45.648;9.004;2023-02-28T13:49:25;99459.78;;;10.53;40.90
59063;BME280;44851;45.648;9.004;2023-02-28T14:05:38;99449.81;;;10.79;41.21
59063;BME280;44851;45.648;9.004;2023-02-28T14:08:08;99451.03;;;10.75;41.25
59063;BME280;44851;45.648;9.004;2023-02-28T14:10:44;99441.56;;;10.74;41.69
59063;BME280;44851;45.648;9.004;2023-02-28T14:13:36;99445.28;;;10.81;43.15
59063;BME280;44851;45.648;9.004;2023-02-28T14:16:11;99432.53;;;10.57;41.73
59063;BME280;44851;45.648;9.004;2023-02-28T14:18:41;99434.47;;;10.76;42.51
59063;BME280;44851;45.648;9.004;2023-02-28T14:21:16;99434.19;;;10.79;41.60
59063;BME280;44851;45.648;9.004;2023-02-28T14:26:59;99426.28;;;10.49;41.89
59063;BME280;44851;45.648;9.004;2023-02-28T14:38:26;99409.53;;;10.42;42.53
59063;BME280;44851;45.648;9.004;2023-02-28T14:40:57;99409.53;;;10.42;41.35
59063;BME280;44851;45.648;9.004;2023-02-28T14:43:28;99415.69;;;10.41;42.23
59063;BME280;44851;45.648;9.004;2023-02-28T14:45:56;99413.41;;;10.26;41.00
59063;BME280;44851;45.648;9.004;2023-02-28T14:48:23;99415.91;;;9.96;41.68
59063;BME280;44851;45.648;9.004;2023-02-28T14:50:56;99406.91;;;10.00;43.12
59063;BME280;44851;45.648;9.004;2023-02-28T14:53:25;99407.00;;;9.77;42.60
59063;BME280;44851;45.648;9.004;2023-02-28T14:55:52;99410.25;;;9.91;42.51
59063;BME280;44851;45.648;9.004;2023-02-28T14:58:32;99411.19;;;9.69;42.78
59063;BME280;44851;45.648;9.004;2023-02-28T15:01:00;99410.19;;;9.49;42.29
59063;BME280;44851;45.648;9.004;2023-02-28T15:03:30;99407.34;;;9.41;42.03
59063;BME280;44851;45.648;9.004;2023-02-28T15:05:59;99400.03;;;9.23;42.82
59063;BME280;44851;45.648;9.004;2023-02-28T15:08:25;99403.69;;;9.32;43.09
59063;BME280;44851;45.648;9.004;2023-02-28T15:11:03;99398.59;;;9.30;42.23
59063;BME280;44851;45.648;9.004;2023-02-28T15:16:08;99394.59;;;9.15;43.15
59063;BME280;44851;45.648;9.004;2023-02-28T15:18:49;99398.59;;;9.30;44.08
59063;BME280;44851;45.648;9.004;2023-02-28T15:21:28;99391.28;;;9.24;43.14
59063;BME280;44851;45.648;9.004;2023-02-28T15:24:03;99393.31;;;9.10;42.60
59063;BME280;44851;45.648;9.004;2023-02-28T15:26:32;99390.13;;;9.17;43.65
59063;BME280;44851;45.648;9.004;2023-02-28T15:29:00;99394.13;;;9.10;43.92
59063;BME280;44851;45.648;9.004;2023-02-28T15:31:32;99391.31;;;9.02;43.27
59063;BME280;44851;45.648;9.004;2023-02-28T15:34:04;99389.22;;;8.96;43.18
59063;BME280;44851;45.648;9.004;2023-02-28T15:36:32;99384.25;;;8.82;43.51
59063;BME280;44851;45.648;9.004;2023-02-28T15:39:00;99388.47;;;8.94;43.86
59063;BME280;44851;45.648;9.004;2023-02-28T15:41:26;99381.97;;;8.88;43.59
59063;BME280;44851;45.648;9.004;2023-02-28T15:44:22;99381.16;;;8.76;43.10
59063;BME280;44851;45.648;9.004;2023-02-28T15:47:01;99382.00;;;8.77;43.41
59063;BME280;44851;45.648;9.004;2023-02-28T15:49:29;99384.13;;;8.72;44.11
59063;BME280;44851;45.648;9.004;2023-02-28T15:51:59;99378.22;;;8.70;44.36
59063;BME280;44851;45.648;9.004;2023-02-28T15:54:32;99380.69;;;8.83;44.38
59063;BME280;44851;45.648;9.004;2023-02-28T15:57:04;99376.91;;;8.53;44.27
59063;BME280;44851;45.648;9.004;2023-02-28T15:59:34;99369.56;;;8.47;45.22
59063;BME280;44851;45.648;9.004;2023-02-28T16:02:14;99373.84;;;8.59;44.72
59063;BME280;44851;45.648;9.004;2023-02-28T16:07:36;99363.94;;;8.53;44.94
59063;BME280;44851;45.648;9.004;2023-02-28T16:10:02;99360.38;;;8.54;45.55
59063;BME280;44851;45.648;9.004;2023-02-28T16:12:31;99363.19;;;8.40;45.48